createdAt,value
2022-12-11T00:00:40.992Z,12.67
2022-12-11T00:03:12.765Z,14.70
2022-12-11T00:05:42.514Z,14.60
2022-12-11T00:08:08.967Z,14.77
2022-12-11T00:10:37.943Z,14.90
2022-12-11T00:13:05.136Z,13.83
2022-12-11T00:15:32.201Z,14.93
2022-12-11T00:17:58.621Z,13.40
2022-12-11T00:20:25.045Z,14.27
2022-12-11T00:22:51.377Z,12.77
2022-12-11T00:25:17.890Z,13.47
2022-12-11T00:27:46.129Z,13.73
2022-12-11T00:30:13.182Z,13.93
2022-12-11T00:32:39.580Z,13.27
2022-12-11T00:35:06.167Z,14.55
2022-12-11T00:37:32.630Z,12.60
2022-12-11T00:39:59.074Z,14.73
2022-12-11T00:42:25.458Z,13.15
2022-12-11T00:44:52.085Z,12.98
2022-12-11T00:47:18.427Z,12.93
2022-12-11T00:49:49.569Z,12.77
2022-12-11T00:52:17.968Z,11.88
2022-12-11T00:54:44.929Z,15.40
2022-12-11T00:57:11.458Z,13.55
2022-12-11T00:59:37.866Z,14.55
2022-12-11T01:02:04.247Z,12.90
2022-12-11T01:04:30.630Z,13.10
2022-12-11T01:06:57.027Z,14.38
2022-12-11T01:09:41.789Z,14.20
2022-12-11T01:12:08.217Z,14.98
2022-12-11T01:14:34.605Z,15.30
2022-12-11T01:17:00.968Z,14.15
2022-12-11T01:19:27.404Z,15.57
2022-12-11T01:21:54.058Z,13.75
2022-12-11T01:24:20.621Z,14.05
2022-12-11T01:26:46.992Z,16.07
2022-12-11T01:29:13.305Z,15.40
2022-12-11T01:31:39.690Z,14.15
2022-12-11T01:34:06.040Z,16.95
2022-12-11T01:36:32.421Z,14.68
2022-12-11T01:38:58.798Z,15.83
2022-12-11T01:41:25.181Z,15.27
2022-12-11T01:44:03.736Z,16.25
2022-12-11T01:46:31.587Z,16.02
2022-12-11T01:48:59.764Z,13.93
2022-12-11T01:51:29.298Z,16.23
2022-12-11T01:54:02.301Z,16.17
2022-12-11T01:56:32.410Z,16.80
2022-12-11T01:59:02.920Z,13.00
2022-12-11T02:01:37.033Z,14.25
2022-12-11T02:04:04.317Z,13.70
2022-12-11T02:06:34.974Z,15.98
2022-12-11T02:09:03.336Z,15.82
2022-12-11T02:11:40.483Z,17.58
2022-12-11T02:14:48.503Z,16.10
2022-12-11T02:17:22.562Z,14.40
2022-12-11T02:20:12.921Z,15.63
2022-12-11T02:22:48.276Z,14.20
2022-12-11T02:25:25.665Z,13.68
2022-12-11T02:28:06.660Z,13.88
2022-12-11T02:30:37.099Z,15.13
2022-12-11T02:33:03.599Z,15.48
2022-12-11T02:35:38.089Z,16.83
2022-12-11T02:38:10.146Z,15.40
2022-12-11T02:40:39.857Z,16.65
2022-12-11T02:43:09.984Z,17.97
2022-12-11T02:45:39.699Z,14.98
2022-12-11T02:48:08.127Z,15.65
2022-12-11T02:50:37.948Z,17.00
2022-12-11T02:53:07.229Z,15.90
2022-12-11T02:55:37.327Z,17.13
2022-12-11T02:58:13.026Z,14.23
2022-12-11T03:00:39.562Z,15.50
2022-12-11T03:03:06.157Z,15.63
2022-12-11T03:05:32.681Z,15.23
2022-12-11T03:07:59.129Z,15.07
2022-12-11T03:10:25.570Z,14.40
2022-12-11T03:12:55.443Z,16.58
2022-12-11T03:15:30.175Z,15.68
2022-12-11T03:18:35.602Z,17.38
2022-12-11T03:21:23.984Z,15.43
2022-12-11T03:24:05.146Z,15.65
2022-12-11T03:26:39.178Z,15.35
2022-12-11T03:29:16.768Z,13.75
2022-12-11T03:32:09.489Z,15.93
2022-12-11T03:34:44.425Z,13.57
2022-12-11T03:37:13.221Z,13.48
2022-12-11T03:39:46.623Z,14.27
2022-12-11T03:42:16.441Z,14.05
2022-12-11T03:44:47.574Z,13.77
2022-12-11T03:47:19.750Z,13.80
2022-12-11T03:49:48.536Z,14.70
2022-12-11T03:52:16.821Z,14.68
2022-12-11T03:54:46.233Z,14.40
2022-12-11T03:57:16.101Z,14.63
2022-12-11T03:59:42.567Z,14.23
2022-12-11T04:02:10.693Z,14.05
2022-12-11T04:04:41.698Z,13.13
2022-12-11T04:07:09.178Z,14.48
2022-12-11T04:09:35.727Z,13.98
2022-12-11T04:12:02.045Z,12.93
2022-12-11T04:14:47.322Z,13.07
2022-12-11T04:17:33.654Z,12.95
2022-12-11T04:20:18.522Z,13.02
2022-12-11T04:23:03.246Z,13.55
2022-12-11T04:25:29.650Z,12.83
2022-12-11T04:27:56.025Z,12.63
2022-12-11T04:30:28.009Z,13.20
2022-12-11T04:32:57.178Z,12.43
2022-12-11T04:35:23.638Z,9.93
2022-12-11T04:37:50.242Z,12.03
2022-12-11T04:40:19.049Z,11.30
2022-12-11T04:42:45.701Z,11.90
2022-12-11T04:45:13.127Z,11.43
2022-12-11T04:47:41.255Z,11.68
2022-12-11T04:50:11.408Z,10.87
2022-12-11T04:52:37.863Z,12.13
2022-12-11T04:55:06.274Z,12.35
2022-12-11T04:57:32.673Z,10.73
2022-12-11T04:59:59.867Z,8.05
2022-12-11T05:02:26.804Z,10.73
2022-12-11T05:04:53.237Z,10.82
2022-12-11T05:07:19.601Z,11.18
2022-12-11T05:09:45.954Z,10.05
2022-12-11T05:12:12.287Z,10.30
2022-12-11T05:14:38.797Z,10.97
2022-12-11T05:17:05.186Z,10.63
2022-12-11T05:19:31.558Z,11.20
2022-12-11T05:21:57.940Z,9.88
2022-12-11T05:24:24.334Z,10.50
2022-12-11T05:26:50.743Z,10.43
2022-12-11T05:29:17.087Z,9.95
2022-12-11T05:31:43.738Z,8.90
2022-12-11T05:34:10.291Z,10.60
2022-12-11T05:36:36.933Z,9.95
2022-12-11T05:39:04.275Z,11.03
2022-12-11T05:41:32.674Z,10.93
2022-12-11T05:44:00.210Z,9.32
2022-12-11T05:46:29.182Z,9.43
2022-12-11T05:48:58.231Z,10.30
2022-12-11T05:51:25.448Z,10.37
2022-12-11T05:53:53.007Z,10.75
2022-12-11T05:56:28.195Z,9.55
2022-12-11T05:58:55.707Z,10.18
2022-12-11T06:01:26.550Z,10.50
2022-12-11T06:03:54.451Z,8.73
2022-12-11T06:06:21.221Z,9.57
2022-12-11T06:08:51.146Z,9.68
2022-12-11T06:11:23.609Z,10.00
2022-12-11T06:13:50.561Z,9.45
2022-12-11T06:16:17.098Z,9.63
2022-12-11T06:18:44.906Z,10.10
2022-12-11T06:21:15.071Z,10.23
2022-12-11T06:23:42.626Z,10.00
2022-12-11T06:26:10.329Z,10.85
2022-12-11T06:28:37.246Z,11.10
2022-12-11T06:31:04.748Z,10.50
2022-12-11T06:33:31.483Z,10.68
2022-12-11T06:36:05.904Z,11.13
2022-12-11T06:38:32.507Z,10.52
2022-12-11T06:41:02.472Z,10.43
2022-12-11T06:43:28.801Z,12.43
2022-12-11T06:45:59.167Z,10.40
2022-12-11T06:48:28.657Z,10.65
2022-12-11T06:50:55.052Z,12.63
2022-12-11T06:53:22.061Z,10.83
2022-12-11T06:55:48.401Z,10.98
2022-12-11T06:58:14.859Z,12.10
2022-12-11T07:00:41.323Z,12.35
2022-12-11T07:03:07.774Z,12.10
2022-12-11T07:05:34.463Z,12.27
2022-12-11T07:08:01.633Z,12.13
2022-12-11T07:10:28.025Z,13.52
2022-12-11T07:12:54.818Z,13.45
2022-12-11T07:15:21.320Z,12.70
2022-12-11T07:17:47.709Z,13.00
2022-12-11T07:20:14.284Z,13.35
2022-12-11T07:22:46.271Z,13.25
2022-12-11T07:25:13.663Z,12.60
2022-12-11T07:27:41.404Z,12.38
2022-12-11T07:30:09.111Z,13.50
2022-12-11T07:32:35.682Z,11.98
2022-12-11T07:35:02.198Z,11.75
2022-12-11T07:37:28.582Z,11.95
2022-12-11T07:39:54.995Z,12.15
2022-12-11T07:42:21.466Z,13.33
2022-12-11T07:44:47.946Z,12.57
2022-12-11T07:47:14.312Z,11.55
2022-12-11T07:49:40.698Z,12.43
2022-12-11T07:52:07.037Z,11.15
2022-12-11T07:54:33.399Z,11.53
2022-12-11T07:56:59.783Z,12.07
2022-12-11T07:59:26.231Z,12.07
2022-12-11T08:01:52.762Z,11.65
2022-12-11T08:04:19.215Z,11.13
2022-12-11T08:06:45.637Z,11.60
2022-12-11T08:09:20.613Z,12.13
2022-12-11T08:11:51.897Z,12.10
2022-12-11T08:14:19.535Z,12.52
2022-12-11T08:16:46.069Z,12.23
2022-12-11T08:19:13.309Z,12.93
2022-12-11T08:21:40.639Z,13.50
2022-12-11T08:24:08.828Z,12.68
2022-12-11T08:26:35.193Z,12.43
2022-12-11T08:29:02.585Z,14.00
2022-12-11T08:31:29.844Z,11.63
2022-12-11T08:33:57.248Z,13.65
2022-12-11T08:36:24.187Z,12.77
2022-12-11T08:38:51.188Z,12.60
2022-12-11T08:41:20.361Z,13.35
2022-12-11T08:43:47.015Z,12.80
2022-12-11T08:46:14.542Z,10.68
2022-12-11T08:48:42.563Z,12.20
2022-12-11T08:51:13.863Z,10.23
2022-12-11T08:53:40.671Z,10.90
2022-12-11T08:56:13.501Z,9.20
2022-12-11T08:58:39.993Z,9.13
2022-12-11T09:01:08.905Z,9.20
2022-12-11T09:03:37.025Z,8.95
2022-12-11T09:06:05.577Z,10.32
2022-12-11T09:08:33.381Z,8.90
2022-12-11T09:11:07.050Z,9.60
2022-12-11T09:13:33.808Z,9.50
2022-12-11T09:16:00.485Z,9.32
2022-12-11T09:18:27.217Z,10.02
2022-12-11T09:21:05.125Z,10.07
2022-12-11T09:23:31.549Z,10.88
2022-12-11T09:25:58.266Z,10.43
2022-12-11T09:28:25.822Z,10.10
2022-12-11T09:30:52.607Z,10.43
2022-12-11T09:33:19.202Z,9.13
2022-12-11T09:35:45.587Z,9.77
2022-12-11T09:38:11.978Z,10.93
2022-12-11T09:40:43.231Z,10.40
2022-12-11T09:43:16.913Z,10.13
2022-12-11T09:45:43.273Z,10.90
2022-12-11T09:48:11.094Z,10.18
2022-12-11T09:50:37.637Z,10.23
2022-12-11T09:53:13.050Z,11.30
2022-12-11T09:55:54.753Z,10.23
2022-12-11T09:58:34.495Z,11.57
2022-12-11T10:01:14.369Z,9.20
2022-12-11T10:03:50.314Z,11.40
2022-12-11T10:06:22.771Z,10.23
2022-12-11T10:09:13.775Z,10.15
2022-12-11T10:11:56.933Z,11.83
2022-12-11T10:14:44.175Z,10.13
2022-12-11T10:17:16.086Z,10.48
2022-12-11T10:19:42.931Z,10.48
2022-12-11T10:22:18.230Z,11.27
2022-12-11T10:27:41.432Z,9.85
2022-12-11T10:30:34.734Z,10.88
2022-12-11T10:33:38.777Z,9.60
2022-12-11T10:36:08.835Z,10.23
2022-12-11T10:38:41.147Z,9.77
2022-12-11T10:41:18.867Z,9.60
2022-12-11T10:43:48.872Z,9.95
2022-12-11T10:46:32.995Z,9.32
2022-12-11T10:49:00.541Z,8.68
2022-12-11T10:51:32.912Z,9.40
2022-12-11T10:54:24.716Z,8.52
2022-12-11T10:56:51.539Z,9.98
2022-12-11T10:59:29.642Z,7.97
2022-12-11T11:01:57.581Z,8.48
2022-12-11T11:04:31.222Z,8.70
2022-12-11T11:07:03.421Z,9.45
2022-12-11T11:09:35.449Z,7.93
2022-12-11T11:12:07.696Z,8.20
2022-12-11T11:14:34.654Z,8.70
2022-12-11T11:17:01.347Z,7.87
2022-12-11T11:19:32.404Z,7.95
2022-12-11T11:22:06.576Z,8.80
2022-12-11T11:24:40.570Z,7.68
2022-12-11T11:27:48.708Z,7.88
2022-12-11T11:30:35.306Z,7.60
2022-12-11T11:33:12.724Z,7.88
2022-12-11T11:35:44.222Z,8.63
2022-12-11T11:38:26.656Z,7.65
2022-12-11T11:41:10.107Z,8.63
2022-12-11T11:43:47.363Z,7.53
2022-12-11T11:46:25.758Z,8.20
2022-12-11T11:49:20.618Z,7.20
2022-12-11T11:52:01.043Z,7.80
2022-12-11T11:54:36.060Z,7.53
2022-12-11T11:57:15.710Z,7.70
2022-12-11T11:59:47.510Z,6.97
2022-12-11T12:02:16.701Z,7.38
2022-12-11T12:04:44.039Z,8.30
2022-12-11T12:07:23.725Z,7.22
2022-12-11T12:10:35.272Z,7.33
2022-12-11T12:13:44.743Z,7.35
2022-12-11T12:16:02.889Z,6.60
2022-12-11T12:18:58.615Z,7.10
2022-12-11T12:21:35.537Z,7.40
2022-12-11T12:24:35.951Z,6.53
2022-12-11T12:27:50.398Z,6.75
2022-12-11T12:30:21.988Z,7.10
2022-12-11T12:33:25.968Z,7.93
2022-12-11T12:36:13.432Z,7.45
2022-12-11T12:39:04.423Z,7.70
2022-12-11T12:41:30.848Z,7.43
2022-12-11T12:44:02.792Z,7.82
2022-12-11T12:46:54.978Z,6.88
2022-12-11T12:49:33.256Z,7.05
2022-12-11T12:52:01.814Z,6.53
2022-12-11T12:54:30.152Z,7.93
2022-12-11T12:56:58.796Z,6.95
2022-12-11T12:59:27.374Z,9.68
2022-12-11T13:01:59.919Z,6.95
2022-12-11T13:04:56.716Z,7.73
2022-12-11T13:07:30.075Z,7.45
2022-12-11T13:09:59.750Z,8.20
2022-12-11T13:12:41.905Z,8.80
2022-12-11T13:15:43.510Z,8.50
2022-12-11T13:18:34.796Z,7.70
2022-12-11T13:21:03.298Z,7.30
2022-12-11T13:23:32.194Z,8.10
2022-12-11T13:26:01.055Z,8.98
2022-12-11T13:28:33.094Z,8.80
2022-12-11T13:31:02.179Z,9.27
2022-12-11T13:33:30.452Z,9.15
2022-12-11T13:36:15.762Z,8.77
2022-12-11T13:38:48.927Z,7.93
2022-12-11T13:41:15.498Z,9.07
2022-12-11T13:43:44.042Z,9.17
2022-12-11T13:46:13.495Z,9.70
2022-12-11T13:48:47.788Z,10.30
2022-12-11T13:51:18.317Z,9.63
2022-12-11T13:53:45.297Z,9.35
2022-12-11T13:56:22.426Z,8.87
2022-12-11T13:58:49.020Z,9.23
2022-12-11T14:01:29.095Z,9.13
2022-12-11T14:03:58.918Z,9.80
2022-12-11T14:06:27.924Z,10.48
2022-12-11T14:08:57.077Z,10.03
2022-12-11T14:11:39.042Z,10.27
2022-12-11T14:14:16.536Z,9.52
2022-12-11T14:16:43.077Z,9.63
2022-12-11T14:19:10.865Z,10.98
2022-12-11T14:21:37.346Z,10.23
2022-12-11T14:24:06.434Z,9.57
2022-12-11T14:26:34.995Z,9.82
2022-12-11T14:29:02.734Z,10.40
2022-12-11T14:31:34.805Z,9.90
2022-12-11T14:34:28.127Z,9.57
2022-12-11T14:36:56.025Z,10.07
2022-12-11T14:39:33.877Z,9.75
2022-12-11T14:42:04.929Z,10.13
2022-12-11T14:44:42.266Z,10.85
2022-12-11T14:47:18.849Z,10.03
2022-12-11T14:49:54.340Z,11.13
2022-12-11T14:52:29.139Z,10.15
2022-12-11T14:55:03.781Z,11.30
2022-12-11T14:57:33.074Z,9.70
2022-12-11T14:59:59.954Z,10.93
2022-12-11T15:02:35.516Z,10.45
2022-12-11T15:05:10.713Z,10.90
2022-12-11T15:07:37.274Z,9.98
2022-12-11T15:10:04.569Z,10.32
2022-12-11T15:12:31.806Z,10.80
2022-12-11T15:15:06.313Z,9.75
2022-12-11T15:17:36.951Z,9.73
2022-12-11T15:20:08.692Z,11.25
2022-12-11T15:22:36.270Z,10.77
2022-12-11T15:25:03.617Z,10.60
2022-12-11T15:27:39.789Z,10.55
2022-12-11T15:30:26.368Z,9.95
2022-12-11T15:33:17.342Z,10.05
2022-12-11T15:35:56.235Z,11.13
2022-12-11T15:38:48.915Z,11.30
2022-12-11T15:41:20.965Z,9.32
2022-12-11T15:43:47.878Z,9.43
2022-12-11T15:46:14.351Z,10.23
2022-12-11T15:48:40.814Z,10.93
2022-12-11T15:51:07.287Z,9.47
2022-12-11T15:53:33.652Z,12.20
2022-12-11T15:56:00.363Z,10.95
2022-12-11T15:58:27.331Z,9.68
2022-12-11T16:00:54.661Z,10.52
2022-12-11T16:03:22.747Z,10.37
2022-12-11T16:05:51.342Z,9.38
2022-12-11T16:08:21.571Z,9.88
2022-12-11T16:10:48.735Z,10.25
2022-12-11T16:13:15.176Z,10.07
2022-12-11T16:15:44.695Z,10.30
2022-12-11T16:18:14.129Z,9.80
2022-12-11T16:20:41.660Z,9.93
2022-12-11T16:23:09.416Z,10.10
2022-12-11T16:25:39.930Z,9.98
2022-12-11T16:28:06.901Z,10.83
2022-12-11T16:30:35.879Z,9.40
2022-12-11T16:33:10.297Z,9.57
2022-12-11T16:35:38.688Z,9.05
2022-12-11T16:38:05.224Z,9.13
2022-12-11T16:40:31.662Z,9.93
2022-12-11T16:42:58.097Z,9.27
2022-12-11T16:45:26.099Z,10.15
2022-12-11T16:47:52.987Z,10.23
2022-12-11T16:50:19.682Z,10.52
2022-12-11T16:52:47.239Z,9.10
2022-12-11T16:55:15.064Z,10.57
2022-12-11T16:57:41.941Z,10.00
2022-12-11T17:00:12.070Z,10.35
2022-12-11T17:02:38.802Z,9.50
2022-12-11T17:05:05.544Z,8.57
2022-12-11T17:07:32.697Z,9.68
2022-12-11T17:10:00.566Z,9.02
2022-12-11T17:12:27.895Z,8.95
2022-12-11T17:14:55.584Z,10.57
2022-12-11T17:17:21.976Z,8.53
2022-12-11T17:19:48.384Z,9.73
2022-12-11T17:22:15.173Z,9.45
2022-12-11T17:24:41.529Z,9.45
2022-12-11T17:27:08.233Z,9.80
2022-12-11T17:29:34.658Z,8.03
2022-12-11T17:32:03.007Z,8.55
2022-12-11T17:34:34.588Z,8.27
2022-12-11T17:37:04.510Z,9.60
2022-12-11T17:39:32.342Z,9.00
2022-12-11T17:41:58.851Z,8.37
2022-12-11T17:44:26.507Z,8.25
2022-12-11T17:46:53.065Z,8.98
2022-12-11T17:49:19.728Z,8.60
2022-12-11T17:51:46.294Z,8.35
2022-12-11T17:54:12.811Z,8.73
2022-12-11T17:56:39.291Z,8.30
2022-12-11T17:59:05.911Z,9.48
2022-12-11T18:01:32.985Z,7.72
2022-12-11T18:04:01.634Z,8.23
2022-12-11T18:06:28.994Z,8.83
2022-12-11T18:08:55.795Z,8.50
2022-12-11T18:11:23.033Z,8.38
2022-12-11T18:13:50.742Z,7.60
2022-12-11T18:16:28.783Z,7.55
2022-12-11T18:18:56.387Z,8.53
2022-12-11T18:21:26.122Z,8.80
2022-12-11T18:23:53.387Z,7.18
2022-12-11T18:26:20.112Z,8.05
2022-12-11T18:28:47.547Z,7.72
2022-12-11T18:31:14.483Z,8.23
2022-12-11T18:33:42.806Z,8.82
2022-12-11T18:36:10.294Z,7.25
2022-12-11T18:38:37.190Z,7.40
2022-12-11T18:41:05.664Z,8.13
2022-12-11T18:43:32.421Z,7.37
2022-12-11T18:45:58.862Z,8.65
2022-12-11T18:48:25.229Z,7.22
2022-12-11T18:50:52.596Z,8.80
2022-12-11T18:53:19.521Z,7.60
2022-12-11T18:55:48.433Z,6.63
2022-12-11T18:58:16.944Z,6.97
2022-12-11T19:00:43.599Z,7.00
2022-12-11T19:03:10.759Z,6.28
2022-12-11T19:05:40.260Z,7.82
2022-12-11T19:08:06.735Z,6.17
2022-12-11T19:10:33.220Z,7.05
2022-12-11T19:12:59.630Z,6.40
2022-12-11T19:15:27.466Z,6.60
2022-12-11T19:17:53.814Z,6.53
2022-12-11T19:23:06.744Z,6.32
2022-12-11T19:25:33.622Z,6.65
2022-12-11T19:28:00.279Z,6.13
2022-12-11T19:30:26.709Z,6.55
2022-12-11T19:32:53.106Z,6.97
2022-12-11T19:35:19.576Z,6.50
2022-12-11T19:37:45.912Z,5.63
2022-12-11T19:40:14.323Z,6.40
2022-12-11T19:42:40.777Z,6.80
2022-12-11T19:45:07.500Z,7.73
2022-12-11T19:47:34.689Z,6.63
2022-12-11T19:50:01.017Z,7.07
2022-12-11T19:52:27.479Z,7.60
2022-12-11T19:54:53.893Z,7.28
2022-12-11T19:57:20.306Z,7.03
2022-12-11T19:59:47.997Z,7.00
2022-12-11T20:02:16.746Z,6.55
2022-12-11T20:04:43.206Z,7.10
2022-12-11T20:07:09.676Z,7.55
2022-12-11T20:09:36.029Z,7.03
2022-12-11T20:12:03.382Z,6.55
2022-12-11T20:14:29.912Z,7.22
2022-12-11T20:17:14.727Z,8.25
2022-12-11T20:19:42.106Z,8.73
2022-12-11T20:22:09.169Z,9.87
2022-12-11T20:24:35.946Z,8.55
2022-12-11T20:27:02.647Z,7.82
2022-12-11T20:29:29.053Z,7.45
2022-12-11T20:31:55.544Z,7.43
2022-12-11T20:34:21.986Z,6.97
2022-12-11T20:36:48.859Z,7.53
2022-12-11T20:39:15.577Z,7.00
2022-12-11T20:41:42.015Z,7.35
2022-12-11T20:44:08.491Z,7.78
2022-12-11T20:46:35.011Z,9.07
2022-12-11T20:49:01.584Z,7.95
2022-12-11T20:51:28.932Z,8.93
2022-12-11T20:53:59.064Z,7.82
2022-12-11T20:56:29.437Z,8.05
2022-12-11T20:58:57.508Z,8.03
2022-12-11T21:01:25.993Z,7.80
2022-12-11T21:03:53.479Z,7.45
2022-12-11T21:06:25.976Z,7.35
2022-12-11T21:08:53.782Z,7.22
2022-12-11T21:11:20.413Z,8.27
2022-12-11T21:13:46.936Z,8.48
2022-12-11T21:16:13.440Z,7.95
2022-12-11T21:18:41.429Z,6.95
2022-12-11T21:21:07.898Z,6.70
2022-12-11T21:23:34.574Z,6.10
2022-12-11T21:26:01.634Z,7.43
2022-12-11T21:28:33.566Z,7.30
2022-12-11T21:31:07.562Z,6.75
2022-12-11T21:33:34.101Z,13.20
2022-12-11T21:36:00.857Z,7.97
2022-12-11T21:38:29.368Z,7.57
2022-12-11T21:40:56.420Z,7.15
2022-12-11T21:43:24.012Z,7.38
2022-12-11T21:46:06.490Z,7.90
2022-12-11T21:48:33.237Z,8.07
2022-12-11T21:51:10.248Z,8.00
2022-12-11T21:53:36.904Z,8.82
2022-12-11T21:56:09.421Z,9.73
2022-12-11T21:58:37.689Z,8.85
2022-12-11T22:01:06.760Z,8.37
2022-12-11T22:03:33.219Z,8.20
2022-12-11T22:05:59.537Z,8.80
2022-12-11T22:08:26.025Z,8.20
2022-12-11T22:10:52.542Z,8.70
2022-12-11T22:13:19.093Z,8.10
2022-12-11T22:15:45.916Z,8.70
2022-12-11T22:18:12.866Z,8.90
2022-12-11T22:20:39.220Z,8.23
2022-12-11T22:23:05.548Z,9.48
2022-12-11T22:25:31.944Z,8.83
2022-12-11T22:27:58.347Z,7.90
2022-12-11T22:30:24.868Z,8.77
2022-12-11T22:32:51.271Z,7.45
2022-12-11T22:35:17.849Z,8.70
2022-12-11T22:37:44.190Z,7.50
2022-12-11T22:40:10.837Z,7.72
2022-12-11T22:42:37.185Z,8.35
2022-12-11T22:45:04.337Z,8.25
2022-12-11T22:47:30.723Z,7.60
2022-12-11T22:49:57.112Z,6.80
2022-12-11T22:52:23.563Z,7.88
2022-12-11T22:54:50.006Z,8.07
2022-12-11T22:57:16.350Z,7.35
2022-12-11T22:59:42.776Z,8.45
2022-12-11T23:02:09.368Z,8.00
2022-12-11T23:04:35.871Z,8.65
2022-12-11T23:07:02.383Z,7.35
2022-12-11T23:09:28.809Z,8.02
2022-12-11T23:11:55.738Z,7.85
2022-12-11T23:14:22.303Z,8.83
2022-12-11T23:16:48.735Z,7.40
2022-12-11T23:19:16.293Z,8.30
2022-12-11T23:21:44.183Z,8.38
2022-12-11T23:24:10.944Z,9.27
2022-12-11T23:26:37.509Z,7.97
2022-12-11T23:29:05.653Z,8.43
2022-12-11T23:31:32.879Z,8.15
2022-12-11T23:33:59.707Z,7.55
2022-12-11T23:36:26.597Z,7.70
2022-12-11T23:38:54.974Z,6.60
2022-12-11T23:41:22.365Z,9.50
2022-12-11T23:43:48.769Z,7.97
2022-12-11T23:46:19.019Z,7.13
2022-12-11T23:48:46.093Z,7.78
2022-12-11T23:51:15.430Z,8.40
2022-12-11T23:53:42.383Z,8.07
2022-12-11T23:56:12.358Z,8.93
2022-12-11T23:58:39.713Z,7.75
